Time;durP1;ratioP1;P1;durP2;ratioP2;P2;SDS_P1;SDS_P2;PMS_P1;PMS_P2;Temp;Humidity;BMP_temperature;BMP_pressure;BME280_temperature;BME280_humidity;BME280_pressure;Samples;Min_cycle;Max_cycle;Signal;HPM_P1;HPM_P2
2021/08/24 00:00:55;;;;;;;14.83;6.55;;;;;;;14.47;81.94;100407.20;1789637;80;21565;-76
2021/08/24 00:03:21;;;;;;;13.72;6.30;;;;;;;14.45;81.97;100407.74;1789699;80;21033;-76
2021/08/24 00:05:48;;;;;;;18.05;7.03;;;;;;;14.40;82.02;100408.44;1789898;80;21439;-78
2021/08/24 00:08:16;;;;;;;11.73;6.58;;;;;;;14.38;82.14;100410.30;1789664;80;21084;-76
2021/08/24 00:10:55;;;;;;;11.90;6.87;;;;;;;14.34;82.58;100407.40;1789576;80;21550;-77
2021/08/24 00:13:22;;;;;;;13.58;6.70;;;;;;;14.30;82.86;100410.27;1789710;80;21150;-77
2021/08/24 00:15:52;;;;;;;11.18;6.17;;;;;;;14.26;82.93;100403.80;1789633;80;21625;-77
2021/08/24 00:18:19;;;;;;;13.78;6.97;;;;;;;14.25;83.09;100406.52;1789585;80;21122;-77
2021/08/24 00:20:48;;;;;;;12.15;6.53;;;;;;;14.24;83.14;100407.43;1789306;80;21054;-76
2021/08/24 00:23:16;;;;;;;14.30;6.22;;;;;;;14.24;83.34;100403.45;1789475;80;20987;-76
2021/08/24 00:25:43;;;;;;;19.27;7.75;;;;;;;14.23;83.46;100401.75;1789628;80;20967;-77
2021/08/24 00:28:09;;;;;;;16.35;6.55;;;;;;;14.24;83.66;100406.11;1789397;80;21592;-77
2021/08/24 00:30:38;;;;;;;14.35;6.97;;;;;;;14.22;83.68;100404.02;1789632;80;21503;-76
2021/08/24 00:33:09;;;;;;;14.05;7.03;;;;;;;14.22;83.63;100408.00;1782161;80;21066;-76
2021/08/24 00:35:39;;;;;;;13.20;6.95;;;;;;;14.22;83.64;100400.05;1781059;80;21098;-76
2021/08/24 00:38:12;;;;;;;14.93;6.45;;;;;;;14.21;83.69;100400.97;1781067;80;21106;-77
2021/08/24 00:40:40;;;;;;;13.05;7.15;;;;;;;14.21;83.55;100400.97;1780826;80;21522;-78
2021/08/24 00:43:09;;;;;;;16.48;7.05;;;;;;;14.21;83.31;100400.97;1781033;80;21800;-76
2021/08/24 00:45:36;;;;;;;11.43;7.20;;;;;;;14.23;83.11;100397.78;1780319;80;21086;-78
2021/08/24 00:48:04;;;;;;;14.58;6.80;;;;;;;14.25;82.56;100397.24;1781116;80;21023;-76
2021/08/24 00:50:41;;;;;;;15.58;6.97;;;;;;;14.28;83.07;100390.46;1775901;80;21030;-76
2021/08/24 00:53:11;;;;;;;17.62;8.25;;;;;;;14.32;82.44;100393.36;1776117;80;21058;-77
2021/08/24 00:55:40;;;;;;;16.10;7.83;;;;;;;14.36;82.00;100394.09;1806520;79;21983;-77
2021/08/24 00:58:10;;;;;;;16.45;7.20;;;;;;;14.37;82.04;100395.31;1812505;79;21517;-77
2021/08/24 01:00:37;;;;;;;19.45;7.83;;;;;;;14.39;81.56;100397.43;1781375;79;21477;-76
2021/08/24 01:03:09;;;;;;;13.55;6.72;;;;;;;14.42;81.76;100398.62;1812893;79;21246;-75
2021/08/24 01:05:41;;;;;;;17.62;7.78;;;;;;;14.41;81.68;100399.55;1813052;79;21049;-77
2021/08/24 01:08:12;;;;;;;12.85;7.00;;;;;;;14.43;81.76;100391.05;1813021;79;21097;-76
2021/08/24 01:11:06;;;;;;;14.83;6.55;;;;;;;14.44;82.23;100394.55;1812577;79;21027;-78
2021/08/24 01:14:17;;;;;;;17.75;7.42;;;;;;;14.46;81.91;100397.52;1812666;79;21045;-76
2021/08/24 01:17:01;;;;;;;13.60;7.20;;;;;;;14.48;81.69;100393.01;1812597;79;21542;-77
2021/08/24 01:20:07;;;;;;;11.22;7.15;;;;;;;14.53;81.46;100400.73;1812721;79;21567;-77
2021/08/24 01:23:00;;;;;;;11.50;7.22;;;;;;;14.57;81.27;100393.06;1812813;79;21335;-75
2021/08/24 01:25:40;;;;;;;16.52;7.58;;;;;;;14.63;81.13;100389.23;1812735;79;21013;-76
2021/08/24 01:28:24;;;;;;;17.73;7.80;;;;;;;14.67;80.81;100377.55;1812562;79;20982;-77
2021/08/24 01:31:22;;;;;;;22.07;7.75;;;;;;;14.74;81.27;100379.43;1743686;79;21036;-76
2021/08/24 01:34:24;;;;;;;19.23;7.10;;;;;;;14.79;80.67;100379.61;1812829;78;21037;-77
2021/08/24 01:36:56;;;;;;;14.85;8.20;;;;;;;14.85;79.96;100379.27;1812792;79;21196;-76
2021/08/24 01:39:47;;;;;;;20.82;7.62;;;;;;;14.90;79.23;100373.27;1813036;79;21088;-77
2021/08/24 01:42:23;;;;;;;16.85;7.47;;;;;;;14.95;79.09;100369.52;1813037;79;22066;-76
2021/08/24 01:45:18;;;;;;;14.85;7.75;;;;;;;15.01;79.18;100367.89;1812987;79;21025;-75
2021/08/24 01:48:00;;;;;;;18.48;8.40;;;;;;;15.06;79.17;100368.50;1811089;79;21056;-77
2021/08/24 01:50:50;;;;;;;15.53;8.18;;;;;;;15.10;79.00;100366.09;1812909;79;21075;-76
2021/08/24 01:53:42;;;;;;;15.18;8.63;;;;;;;15.14;78.46;100363.67;1810661;79;21025;-77
2021/08/24 01:56:11;;;;;;;15.72;8.30;;;;;;;15.19;77.90;100362.95;1779557;80;21040;-77
2021/08/24 01:59:00;;;;;;;13.08;8.00;;;;;;;15.23;77.32;100360.53;1780906;80;21010;-76
2021/08/24 02:01:33;;;;;;;14.70;8.05;;;;;;;15.24;76.86;100355.61;1780787;80;21158;-75
2021/08/24 02:04:01;;;;;;;15.25;7.33;;;;;;;15.30;76.61;100357.95;1780833;80;21542;-76
2021/08/24 02:06:35;;;;;;;13.60;7.75;;;;;;;15.34;76.35;100359.09;1776228;80;20997;-76
2021/08/24 02:09:08;;;;;;;10.72;7.33;;;;;;;15.38;76.06;100354.02;1780822;80;21544;-77
2021/08/24 02:11:34;;;;;;;10.32;6.33;;;;;;;15.43;76.19;100354.63;1779892;80;21061;-78
2021/08/24 02:14:09;;;;;;;13.88;7.53;;;;;;;15.47;77.17;100350.88;1781094;80;21198;-76
2021/08/24 02:16:37;;;;;;;13.28;7.85;;;;;;;15.52;76.70;100345.69;1780689;80;21809;-76
2021/08/24 02:19:10;;;;;;;15.23;8.28;;;;;;;15.53;76.61;100346.09;1780576;80;21013;-77
2021/08/24 02:22:01;;;;;;;18.55;8.33;;;;;;;15.57;76.30;100349.42;1775890;80;21100;-77
2021/08/24 02:24:32;;;;;;;13.35;7.80;;;;;;;15.59;76.51;100339.59;1780871;80;21092;-78
2021/08/24 02:26:58;;;;;;;12.93;7.60;;;;;;;15.63;76.44;100335.83;1780882;80;21801;-76
2021/08/24 02:29:25;;;;;;;16.02;8.75;;;;;;;15.66;76.41;100338.30;1781208;80;21077;-78
2021/08/24 02:32:06;;;;;;;13.53;7.87;;;;;;;15.69;76.50;100332.84;1780576;80;21044;-77
2021/08/24 02:34:41;;;;;;;13.35;7.30;;;;;;;15.72;76.51;100330.05;1780428;80;21056;-77
2021/08/24 02:37:24;;;;;;;14.45;7.17;;;;;;;15.76;76.70;100335.17;1780730;80;21081;-78
2021/08/24 02:40:31;;;;;;;14.55;7.90;;;;;;;15.79;76.76;100335.02;1780816;80;21123;-77
2021/08/24 02:43:23;;;;;;;16.50;7.00;;;;;;;15.81;76.51;100334.47;1780750;80;21088;-78
2021/08/24 02:46:21;;;;;;;19.40;8.20;;;;;;;15.83;76.24;100331.27;1780982;80;21014;-77
2021/08/24 02:48:58;;;;;;;15.75;8.15;;;;;;;15.85;76.69;100333.34;1779823;80;21248;-77
2021/08/24 02:51:26;;;;;;;10.72;6.40;;;;;;;15.85;77.48;100333.34;1780835;80;21029;-78
2021/08/24 02:54:17;;;;;;;13.85;7.28;;;;;;;15.84;77.96;100331.64;1780840;79;21045;-77
2021/08/24 02:56:45;;;;;;;13.35;7.80;;;;;;;15.82;77.77;100329.53;1783274;80;21777;-77
2021/08/24 02:59:12;;;;;;;14.10;7.35;;;;;;;15.78;77.76;100331.52;1783283;80;21017;-77
2021/08/24 03:01:39;;;;;;;13.15;8.23;;;;;;;15.75;77.82;100328.16;1803057;79;21543;-75
2021/08/24 03:04:07;;;;;;;14.83;7.40;;;;;;;15.72;77.85;100330.05;1812605;79;21080;-76
2021/08/24 03:06:45;;;;;;;14.60;6.95;;;;;;;15.70;77.89;100327.06;1812813;79;21057;-76
2021/08/24 03:09:13;;;;;;;18.95;8.05;;;;;;;15.64;77.79;100324.73;1812696;79;21092;-77
2021/08/24 03:11:44;;;;;;;12.18;6.95;;;;;;;15.62;77.79;100326.16;1812639;79;21052;-76
2021/08/24 03:14:17;;;;;;;12.40;7.28;;;;;;;15.61;77.97;100332.39;1812752;79;21544;-77
2021/08/24 03:16:55;;;;;;;13.88;8.18;;;;;;;15.61;77.87;100335.05;1812719;79;21111;-77
2021/08/24 03:19:28;;;;;;;10.38;6.42;;;;;;;15.62;78.16;100334.12;1812766;79;21044;-76
2021/08/24 03:21:56;;;;;;;13.58;7.80;;;;;;;15.62;78.35;100332.80;1812686;79;21125;-75
2021/08/24 03:24:22;;;;;;;12.35;7.55;;;;;;;15.65;78.18;100337.08;1812837;79;21037;-76
2021/08/24 03:26:49;;;;;;;15.03;7.25;;;;;;;15.67;78.43;100334.73;1812606;79;21563;-75
2021/08/24 03:29:19;;;;;;;15.70;7.37;;;;;;;15.68;78.61;100331.59;1812734;79;21089;-76
2021/08/24 03:31:51;;;;;;;12.83;7.10;;;;;;;15.71;78.77;100332.77;1813063;79;21058;-76
2021/08/24 03:34:17;;;;;;;;;;;;;;;15.71;78.88;100325.69;1815483;78;21505;-77
2021/08/24 03:36:45;;;;;;;15.05;8.03;;;;;;;15.72;78.68;100326.06;1812911;79;20182;-77
2021/08/24 03:39:13;;;;;;;12.68;7.65;;;;;;;15.76;78.67;100325.88;1812855;79;21103;-77
2021/08/24 03:41:41;;;;;;;19.55;8.08;;;;;;;15.82;78.87;100334.84;1812756;79;21045;-77
2021/08/24 03:44:07;;;;;;;26.93;9.40;;;;;;;15.91;78.70;100326.36;1812915;79;20993;-76
2021/08/24 03:46:34;;;;;;;21.02;9.13;;;;;;;16.04;78.71;100329.20;1812573;79;22110;-77
2021/08/24 03:49:02;;;;;;;22.70;10.15;;;;;;;16.18;78.28;100325.77;1812314;79;21029;-77
2021/08/24 03:51:28;;;;;;;15.03;8.80;;;;;;;16.32;77.42;100341.28;1812595;79;21056;-76
2021/08/24 03:53:54;;;;;;;15.18;7.97;;;;;;;16.42;77.26;100335.44;1812769;79;21025;-78
2021/08/24 03:56:21;;;;;;;11.88;7.75;;;;;;;16.55;76.83;100338.62;1812736;79;21052;-78
2021/08/24 03:58:48;;;;;;;11.63;7.45;;;;;;;16.78;76.23;100341.73;1812576;79;21167;-76
2021/08/24 04:01:17;;;;;;;12.15;7.67;;;;;;;17.11;75.36;100348.66;1812414;79;21559;-76
2021/08/24 04:03:44;;;;;;;18.90;9.48;;;;;;;17.49;73.89;100347.64;1812686;79;21342;-78
2021/08/24 04:06:11;;;;;;;22.85;9.35;;;;;;;17.85;72.25;100341.44;1812711;79;21124;-77
2021/08/24 04:08:38;;;;;;;20.65;10.38;;;;;;;18.17;70.51;100341.53;1812603;79;21085;-77
2021/08/24 04:11:06;;;;;;;16.40;8.13;;;;;;;18.41;69.53;100343.08;1812422;79;21136;-76
2021/08/24 04:13:33;;;;;;;18.07;10.10;;;;;;;18.49;68.63;100339.89;1812350;79;21064;-76
2021/08/24 04:16:09;;;;;;;21.17;9.98;;;;;;;18.49;68.09;100342.56;1812892;79;21005;-78
2021/08/24 04:18:36;;;;;;;20.17;9.28;;;;;;;18.45;68.05;100341.08;1813056;79;21560;-76
2021/08/24 04:21:10;;;;;;;20.52;10.48;;;;;;;18.40;67.81;100344.51;1812990;79;21120;-76
2021/08/24 04:23:36;;;;;;;17.20;9.63;;;;;;;18.38;68.00;100349.08;1812671;79;21128;-76
2021/08/24 04:26:03;;;;;;;15.65;9.73;;;;;;;18.35;68.05;100351.48;1812569;79;21014;-77
2021/08/24 04:28:29;;;;;;;18.45;9.60;;;;;;;18.35;68.15;100346.63;1813025;79;21089;-78
2021/08/24 04:30:56;;;;;;;17.30;9.80;;;;;;;18.35;68.33;100348.81;1812905;79;21025;-76
2021/08/24 04:33:23;;;;;;;18.57;10.03;;;;;;;18.34;68.46;100348.94;1815085;78;21068;-77
2021/08/24 04:35:52;;;;;;;18.87;10.60;;;;;;;18.36;68.66;100355.02;1818771;78;20981;-76
2021/08/24 04:38:18;;;;;;;18.62;10.25;;;;;;;18.37;68.90;100355.38;1818876;78;21069;-76
2021/08/24 04:40:44;;;;;;;25.92;10.08;;;;;;;18.37;69.27;100350.05;1818891;78;21061;-77
2021/08/24 04:43:12;;;;;;;17.32;10.18;;;;;;;18.36;68.88;100355.87;1818715;78;21072;-77
2021/08/24 04:45:41;;;;;;;17.62;11.55;;;;;;;18.38;68.77;100358.41;1818071;78;21552;-76
2021/08/24 04:48:07;;;;;;;22.10;10.93;;;;;;;18.41;69.07;100355.56;1818836;78;21433;-78
2021/08/24 04:50:35;;;;;;;25.48;12.75;;;;;;;18.43;69.16;100353.66;1818428;78;21049;-76
2021/08/24 04:53:03;;;;;;;19.30;10.78;;;;;;;18.45;69.12;100346.41;1818605;78;20974;-79
2021/08/24 04:55:33;;;;;;;29.32;12.50;;;;;;;18.45;69.75;100351.75;1818716;78;21816;-76
2021/08/24 04:58:01;;;;;;;22.75;10.30;;;;;;;18.47;69.87;100343.62;1819039;78;21068;-76
2021/08/24 05:00:29;;;;;;;23.38;12.60;;;;;;;18.50;69.24;100344.29;1818812;78;21744;-76
2021/08/24 05:02:56;;;;;;;24.77;11.48;;;;;;;18.54;68.74;100342.25;1818938;78;21017;-77
2021/08/24 05:05:23;;;;;;;24.23;12.78;;;;;;;18.60;68.37;100344.03;1819122;78;21511;-76
2021/08/24 05:07:49;;;;;;;24.67;12.85;;;;;;;18.66;67.47;100343.64;1818852;78;21322;-77
2021/08/24 05:10:16;;;;;;;17.67;10.03;;;;;;;18.71;67.34;100339.33;1818939;78;21107;-78
2021/08/24 05:12:42;;;;;;;23.38;12.90;;;;;;;18.77;67.06;100345.63;1818942;78;21496;-76
2021/08/24 05:15:09;;;;;;;18.45;10.60;;;;;;;18.83;66.80;100347.84;1818397;78;21095;-78
2021/08/24 05:17:36;;;;;;;28.75;12.35;;;;;;;18.89;66.39;100345.27;1818850;78;21120;-76
2021/08/24 05:20:04;;;;;;;21.60;12.35;;;;;;;18.93;66.36;100341.40;1818593;78;21021;-78
2021/08/24 05:22:30;;;;;;;22.17;11.95;;;;;;;18.95;66.25;100343.48;1818887;78;21016;-76
2021/08/24 05:24:56;;;;;;;24.15;12.95;;;;;;;18.96;66.18;100341.21;1818773;78;22107;-77
2021/08/24 05:27:23;;;;;;;18.55;10.45;;;;;;;19.02;66.19;100342.59;1818925;78;21018;-78
2021/08/24 05:29:50;;;;;;;26.73;13.30;;;;;;;19.08;66.22;100336.34;1818525;78;21054;-76
2021/08/24 05:32:16;;;;;;;32.93;13.60;;;;;;;19.21;65.98;100338.16;1818892;78;21065;-76
2021/08/24 05:34:43;;;;;;;23.92;10.45;;;;;;;19.35;66.07;100335.85;1814101;78;21085;-77
2021/08/24 05:37:09;;;;;;;25.12;12.43;;;;;;;19.50;65.25;100337.45;1812949;79;21474;-78
2021/08/24 05:39:36;;;;;;;23.27;12.58;;;;;;;19.69;64.62;100333.01;1812734;79;21088;-78
2021/08/24 05:42:03;;;;;;;19.75;12.85;;;;;;;19.85;64.32;100334.97;1813589;79;20998;-75
2021/08/24 05:44:30;;;;;;;24.32;13.85;;;;;;;20.00;63.45;100337.48;1812784;79;21485;-78
2021/08/24 05:46:56;;;;;;;20.40;12.73;;;;;;;20.15;63.61;100338.16;1812763;79;21599;-77
2021/08/24 05:49:24;;;;;;;23.62;13.48;;;;;;;20.33;62.93;100334.97;1812933;79;21507;-76
2021/08/24 05:51:50;;;;;;;25.05;12.35;;;;;;;20.52;62.00;100341.62;1813497;79;21088;-77
2021/08/24 05:54:16;;;;;;;19.90;12.23;;;;;;;20.68;60.86;100343.56;1806243;79;21105;-76
2021/08/24 05:56:43;;;;;;;29.48;14.15;;;;;;;20.84;60.26;100346.39;1784083;80;21042;-78
2021/08/24 05:59:10;;;;;;;27.80;13.03;;;;;;;20.93;60.37;100337.65;1783505;80;20995;-77
2021/08/24 06:01:37;;;;;;;24.65;13.85;;;;;;;21.03;60.04;100348.53;1783709;79;21686;-77
2021/08/24 06:04:04;;;;;;;23.00;15.32;;;;;;;20.96;59.81;100345.47;1783723;80;21364;-77
2021/08/24 06:06:37;;;;;;;23.20;14.58;;;;;;;20.95;59.76;100343.75;1783619;80;21026;-77
2021/08/24 06:09:11;;;;;;;24.90;13.60;;;;;;;20.88;60.35;100331.31;1783540;79;21025;-77
2021/08/24 06:11:47;;;;;;;23.18;14.63;;;;;;;20.90;60.10;100329.87;1783649;80;21022;-77
2021/08/24 06:14:15;;;;;;;25.12;13.80;;;;;;;21.00;60.25;100333.52;1784674;80;21589;-76
2021/08/24 06:16:42;;;;;;;28.25;15.50;;;;;;;21.12;59.90;100339.78;1783654;80;21069;-78
2021/08/24 06:19:09;;;;;;;20.75;12.78;;;;;;;21.28;59.51;100331.38;1783593;80;21065;-78
2021/08/24 06:21:37;;;;;;;23.77;15.48;;;;;;;21.40;59.09;100335.81;1783688;80;21085;-76
2021/08/24 06:24:06;;;;;;;20.35;14.28;;;;;;;21.64;58.39;100337.51;1783536;79;21297;-79
2021/08/24 06:26:32;;;;;;;23.35;14.03;;;;;;;22.07;57.03;100336.72;1783571;80;21520;-77
2021/08/24 06:28:59;;;;;;;23.67;15.60;;;;;;;22.50;55.06;100337.20;1783395;80;21065;-78
2021/08/24 06:31:27;;;;;;;24.98;14.83;;;;;;;22.87;54.07;100334.09;1783553;80;21089;-77
2021/08/24 06:33:54;;;;;;;20.77;12.95;;;;;;;23.23;53.30;100333.62;1783101;79;21138;-77
2021/08/24 06:36:21;;;;;;;21.48;13.28;;;;;;;23.55;49.94;100335.34;1783649;79;21047;-77
2021/08/24 06:38:47;;;;;;;14.75;10.78;;;;;;;23.69;48.72;100334.61;1783853;80;21159;-78
2021/08/24 06:41:15;;;;;;;19.85;12.68;;;;;;;23.73;49.29;100332.02;1783525;80;21079;-78
2021/08/24 06:43:41;;;;;;;20.32;12.40;;;;;;;23.89;47.69;100328.34;1783635;80;21076;-77
2021/08/24 06:46:08;;;;;;;22.17;13.40;;;;;;;24.04;48.57;100324.75;1783441;80;21033;-78
2021/08/24 06:48:34;;;;;;;20.92;12.18;;;;;;;24.31;47.06;100319.20;1783537;79;21031;-77
2021/08/24 06:51:03;;;;;;;20.75;11.53;;;;;;;24.55;46.06;100311.59;1783460;79;21543;-76
2021/08/24 06:53:30;;;;;;;13.78;9.05;;;;;;;25.04;44.88;100322.28;1783723;79;21564;-77
2021/08/24 06:55:56;;;;;;;19.15;11.00;;;;;;;25.36;42.12;100319.23;1781247;80;21027;-76
2021/08/24 06:58:23;;;;;;;16.48;10.38;;;;;;;25.69;41.66;100320.49;1780781;80;21344;-78
2021/08/24 07:00:50;;;;;;;18.30;9.58;;;;;;;26.08;41.36;100320.30;1780682;80;21019;-77
2021/08/24 07:03:16;;;;;;;18.12;9.55;;;;;;;26.20;40.00;100322.77;1780835;80;21316;-78
2021/08/24 07:05:46;;;;;;;14.83;9.00;;;;;;;26.30;41.09;100324.41;1780901;80;20996;-77
2021/08/24 07:08:13;;;;;;;16.73;9.38;;;;;;;26.43;38.96;100315.91;1780608;80;21086;-77
2021/08/24 07:10:41;;;;;;;10.53;7.85;;;;;;;26.70;38.46;100314.15;1780542;80;21017;-76
2021/08/24 07:13:08;;;;;;;20.52;9.78;;;;;;;27.14;37.94;100322.22;1780610;80;21089;-78
2021/08/24 07:15:38;;;;;;;15.83;7.87;;;;;;;27.51;37.29;100316.53;1780120;80;21048;-76
2021/08/24 07:18:04;;;;;;;16.75;8.60;;;;;;;27.91;35.54;100312.84;1780541;80;21023;-77
2021/08/24 07:20:31;;;;;;;10.95;7.47;;;;;;;28.32;35.54;100310.20;1780443;80;21558;-78
2021/08/24 07:22:59;;;;;;;16.97;8.73;;;;;;;28.73;34.60;100309.73;1780605;80;21083;-79
2021/08/24 07:25:26;;;;;;;12.65;7.70;;;;;;;29.06;35.15;100310.55;1780524;80;21061;-78
2021/08/24 07:27:54;;;;;;;10.43;5.92;;;;;;;29.41;34.09;100311.16;1780705;80;21212;-78
2021/08/24 07:30:21;;;;;;;10.72;7.22;;;;;;;29.82;31.24;100302.03;1780482;80;20999;-79
2021/08/24 07:32:48;;;;;;;12.28;7.62;;;;;;;30.29;31.32;100305.98;1775682;80;21082;-77
2021/08/24 07:35:14;;;;;;;10.88;6.90;;;;;;;30.73;29.87;100297.13;1780617;80;21498;-79
2021/08/24 07:37:41;;;;;;;11.45;7.37;;;;;;;31.00;30.07;100294.03;1780729;80;21019;-78
2021/08/24 07:40:09;;;;;;;14.68;7.47;;;;;;;31.17;29.72;100294.69;1780652;80;21519;-77
2021/08/24 07:42:36;;;;;;;11.93;6.10;;;;;;;31.44;29.74;100288.61;1780430;80;21126;-78
2021/08/24 07:45:04;;;;;;;11.03;6.83;;;;;;;31.53;28.62;100288.84;1780545;80;21483;-78
2021/08/24 07:47:30;;;;;;;11.08;6.37;;;;;;;31.75;28.62;100288.91;1780520;80;21078;-79
2021/08/24 07:49:57;;;;;;;8.53;5.90;;;;;;;31.76;28.44;100285.14;1780675;80;21030;-77
2021/08/24 07:52:24;;;;;;;9.45;5.42;;;;;;;31.76;27.08;100283.25;1780679;80;21102;-78
2021/08/24 07:54:52;;;;;;;10.00;5.85;;;;;;;31.50;27.92;100286.50;1781811;80;21057;-79
2021/08/24 07:57:19;;;;;;;7.47;5.08;;;;;;;31.17;28.12;100285.17;1783562;80;21077;-77
2021/08/24 07:59:45;;;;;;;10.20;5.58;;;;;;;30.93;28.45;100284.41;1783752;80;21069;-77
2021/08/24 08:02:14;;;;;;;8.00;5.67;;;;;;;30.72;29.08;100279.14;1783803;80;21038;-79
2021/08/24 08:04:41;;;;;;;8.83;5.75;;;;;;;30.71;29.24;100281.55;1783685;80;21086;-78
2021/08/24 08:07:08;;;;;;;7.35;5.42;;;;;;;30.64;29.31;100277.84;1783646;80;21025;-78
2021/08/24 08:09:35;;;;;;;9.33;5.42;;;;;;;30.62;29.25;100278.57;1783315;80;21010;-78
2021/08/24 08:12:01;;;;;;;10.20;6.00;;;;;;;30.44;29.33;100276.69;1783703;80;20998;-77
2021/08/24 08:14:28;;;;;;;9.75;5.87;;;;;;;30.39;29.59;100269.58;1783651;80;21049;-78
2021/08/24 08:16:54;;;;;;;11.45;6.15;;;;;;;30.22;29.66;100271.03;1783153;80;21108;-78
2021/08/24 08:19:21;;;;;;;11.97;6.05;;;;;;;30.23;29.99;100279.53;1783686;80;21031;-78
2021/08/24 08:21:47;;;;;;;13.38;5.97;;;;;;;30.41;29.97;100270.25;1783255;80;21062;-78
2021/08/24 08:24:14;;;;;;;14.10;7.05;;;;;;;30.48;29.00;100263.05;1783583;80;20981;-78
2021/08/24 08:26:41;;;;;;;11.57;6.62;;;;;;;30.31;28.91;100268.63;1783100;80;21100;-78
2021/08/24 08:29:13;;;;;;;9.35;6.33;;;;;;;29.76;29.59;100279.14;1783340;80;21065;-78
2021/08/24 08:31:42;;;;;;;8.45;5.78;;;;;;;29.51;29.73;100274.31;1783057;80;21010;-78
2021/08/24 08:34:10;;;;;;;10.80;7.00;;;;;;;29.45;30.67;100269.09;1783999;79;21101;-77
2021/08/24 08:36:38;;;;;;;7.10;4.62;;;;;;;29.64;29.97;100269.69;1789270;80;21088;-77
2021/08/24 08:39:04;;;;;;;8.30;5.30;;;;;;;29.71;28.58;100263.08;1789381;79;21048;-79
2021/08/24 08:41:37;;;;;;;9.43;4.97;;;;;;;29.86;29.33;100268.92;1789266;80;21930;-77
2021/08/24 08:44:14;;;;;;;6.83;4.85;;;;;;;29.81;28.52;100260.45;1785485;79;21028;-78
2021/08/24 08:49:34;;;;;;;14.95;5.10;;;;;;;29.80;28.20;100268.27;1852293;77;23391;-78
2021/08/24 08:52:23;;;;;;;7.87;5.15;;;;;;;29.76;28.61;100265.58;1801032;78;21828;-78
2021/08/24 08:55:17;;;;;;;9.10;5.60;;;;;;;30.03;28.59;100249.80;1773076;80;21137;-78
2021/08/24 08:57:49;;;;;;;8.93;5.92;;;;;;;30.03;28.59;100249.80;1751885;81;21439;-78
2021/08/24 09:00:28;;;;;;;9.60;5.37;;;;;;;30.13;28.98;100261.26;1751707;81;21028;-79
2021/08/24 09:03:18;;;;;;;10.10;5.87;;;;;;;30.37;28.40;100259.41;1749043;81;21058;-78
2021/08/24 09:05:48;;;;;;;14.15;6.50;;;;;;;30.51;28.23;100247.76;1698315;81;21142;-78
2021/08/24 09:08:19;;;;;;;12.70;6.03;;;;;;;30.66;28.54;100246.41;1751625;81;21972;-78
2021/08/24 09:10:54;;;;;;;10.10;5.17;;;;;;;30.58;28.46;100253.30;1751512;81;21018;-79
2021/08/24 09:13:48;;;;;;;11.78;4.92;;;;;;;30.58;28.46;100253.30;1752013;81;20986;-78
2021/08/24 09:16:41;;;;;;;10.50;3.52;;;;;;;30.27;27.96;100238.77;1751983;81;21044;-78
2021/08/24 09:19:28;;;;;;;8.60;4.53;;;;;;;29.74;27.67;100253.20;1751348;81;21100;-79
2021/08/24 09:21:55;;;;;;;7.47;4.22;;;;;;;29.71;28.48;100251.70;1751798;81;21790;-78
2021/08/24 09:24:25;;;;;;;10.53;4.15;;;;;;;29.74;27.71;100237.77;1675804;81;21041;-78
2021/08/24 09:27:09;;;;;;;14.55;4.72;;;;;;;29.95;27.86;100230.84;1752262;81;21029;-78
2021/08/24 09:29:44;;;;;;;9.55;3.70;;;;;;;29.83;26.99;100236.69;1751847;81;21068;-78
2021/08/24 09:32:11;;;;;;;8.85;3.75;;;;;;;29.59;27.48;100230.87;1751952;81;21041;-79
2021/08/24 09:34:42;;;;;;;6.58;4.05;;;;;;;29.66;27.79;100235.08;1722813;81;21515;-79
2021/08/24 09:37:09;;;;;;;6.87;3.90;;;;;;;29.63;27.74;100227.28;1751732;81;20963;-79
2021/08/24 09:40:00;;;;;;;7.15;3.65;;;;;;;29.47;27.43;100237.22;1675392;81;21081;-79
2021/08/24 09:42:41;;;;;;;;;;;;;;;29.31;27.14;100234.58;1754338;81;21065;-78
2021/08/24 09:45:26;;;;;;;6.95;3.65;;;;;;;29.37;27.90;100225.72;1752074;81;20174;-78
2021/08/24 09:48:06;;;;;;;7.92;3.62;;;;;;;29.42;27.60;100223.31;1751719;81;21125;-78
2021/08/24 09:50:40;;;;;;;13.13;4.50;;;;;;;29.48;27.13;100219.90;1751576;81;21069;-76
2021/08/24 09:53:09;;;;;;;7.05;3.55;;;;;;;29.70;27.15;100217.42;1751741;81;21021;-77
2021/08/24 09:55:48;;;;;;;13.43;4.30;;;;;;;29.87;27.01;100226.33;1782738;80;21146;-78
2021/08/24 09:58:34;;;;;;;10.05;3.98;;;;;;;29.84;27.05;100213.96;1791470;80;21036;-79
2021/08/24 10:01:08;;;;;;;8.58;4.30;;;;;;;29.79;27.00;100219.06;1790590;80;21967;-78
2021/08/24 10:03:38;;;;;;;11.83;3.83;;;;;;;29.79;26.97;100208.72;1790924;80;21017;-79
2021/08/24 10:06:28;;;;;;;7.35;3.55;;;;;;;30.02;26.82;100212.28;1791505;80;21553;-79
2021/08/24 10:09:16;;;;;;;9.50;3.83;;;;;;;30.00;27.04;100201.27;1790934;80;21040;-79
2021/08/24 10:11:43;;;;;;;9.48;4.00;;;;;;;30.01;26.38;100203.81;1790988;80;21072;-79
2021/08/24 10:14:26;;;;;;;14.63;3.55;;;;;;;30.25;26.28;100197.36;1790787;80;21144;-79
2021/08/24 10:16:57;;;;;;;10.05;3.87;;;;;;;30.40;25.31;100205.56;1790074;80;21092;-78
2021/08/24 10:19:30;;;;;;;10.50;3.90;;;;;;;30.35;25.49;100199.00;1791623;80;21072;-77
2021/08/24 10:22:05;;;;;;;6.17;3.35;;;;;;;30.40;25.96;100196.58;1790799;80;21512;-77
2021/08/24 10:24:40;;;;;;;18.80;4.08;;;;;;;30.22;25.66;100200.94;1790912;80;21076;-78
2021/08/24 10:27:23;;;;;;;11.78;3.65;;;;;;;29.83;26.00;100187.83;1787873;80;21752;-77
2021/08/24 10:29:59;;;;;;;5.92;3.60;;;;;;;29.47;26.83;100203.79;1753786;80;21028;-79
2021/08/24 10:32:46;;;;;;;6.37;3.60;;;;;;;29.11;27.04;100214.32;1789977;80;21060;-77
2021/08/24 10:35:27;;;;;;;9.48;3.40;;;;;;;28.86;27.41;100200.29;1790842;80;21093;-78
2021/08/24 10:37:54;;;;;;;8.53;3.45;;;;;;;28.87;27.90;100197.06;1790895;80;21115;-79
2021/08/24 10:40:42;;;;;;;7.72;3.33;;;;;;;29.07;27.90;100186.18;1790660;80;21906;-77
2021/08/24 10:43:19;;;;;;;8.98;3.60;;;;;;;29.39;27.13;100190.29;1790925;80;21085;-79
2021/08/24 10:46:14;;;;;;;7.97;3.65;;;;;;;29.37;26.47;100194.52;1791190;80;21123;-78
2021/08/24 10:48:41;;;;;;;10.38;3.65;;;;;;;29.25;26.60;100183.23;1784652;80;21340;-77
2021/08/24 10:51:13;;;;;;;9.33;3.12;;;;;;;29.38;26.60;100175.89;1778374;80;21017;-78
2021/08/24 10:54:05;;;;;;;12.63;3.50;;;;;;;29.22;26.99;100181.40;1778491;80;21026;-77
2021/08/24 10:56:43;;;;;;;11.30;3.80;;;;;;;28.97;26.92;100174.69;1732145;82;21079;-79
2021/08/24 10:59:21;;;;;;;6.70;3.87;;;;;;;28.95;27.50;100169.94;1732273;82;21066;-77
2021/08/24 11:01:58;;;;;;;12.53;3.72;;;;;;;29.10;27.10;100166.00;1732577;82;21130;-78
2021/08/24 11:04:54;;;;;;;8.83;4.00;;;;;;;29.24;27.46;100169.84;1732405;82;21067;-78
2021/08/24 11:07:56;;;;;;;7.05;3.50;;;;;;;29.41;26.70;100153.82;1732656;82;21530;-78
2021/08/24 11:10:41;;;;;;;22.55;3.15;;;;;;;29.78;27.28;100163.63;1732253;82;21577;-77
2021/08/24 11:13:36;;;;;;;5.20;3.20;;;;;;;29.57;26.09;100171.03;1700024;82;21048;-77
2021/08/24 11:16:41;;;;;;;8.63;3.12;;;;;;;29.30;26.24;100163.71;1732509;82;21053;-77
2021/08/24 11:19:28;;;;;;;6.87;3.08;;;;;;;29.25;26.40;100149.84;1732179;82;21618;-78
2021/08/24 11:22:06;;;;;;;6.67;3.08;;;;;;;29.45;26.27;100144.31;1732066;82;21590;-77
2021/08/24 11:25:15;;;;;;;18.05;3.75;;;;;;;29.44;26.72;100143.95;1732038;82;21103;-77
2021/08/24 11:28:11;;;;;;;5.75;2.50;;;;;;;29.52;26.43;100151.70;1718635;82;21052;-77
2021/08/24 11:30:51;;;;;;;16.60;3.52;;;;;;;29.49;25.98;100153.78;1732120;82;21028;-77
2021/08/24 11:33:46;;;;;;;7.00;2.70;;;;;;;29.31;26.37;100154.57;1731766;82;21079;-80
2021/08/24 11:36:21;;;;;;;6.85;3.10;;;;;;;29.27;26.56;100155.94;1731806;82;22186;-79
2021/08/24 11:39:01;;;;;;;4.72;3.15;;;;;;;29.11;26.56;100151.44;1732263;82;21646;-78
2021/08/24 11:41:28;;;;;;;4.78;2.80;;;;;;;29.04;26.48;100139.06;1732043;82;21107;-78
2021/08/24 11:44:07;;;;;;;6.20;2.70;;;;;;;28.87;25.93;100148.28;1715546;82;21063;-78
2021/08/24 11:46:59;;;;;;;8.38;3.77;;;;;;;28.68;25.86;100144.63;1732261;82;22077;-78